sensor_id;sensor_type;location;lat;lon;timestamp;P1;durP1;ratioP1;P2;durP2;ratioP2
20814;SDS011;10568;48.176;16.316;2022-08-01T00:00:24;3.57;;;2.47;;
20814;SDS011;10568;48.176;16.316;2022-08-01T00:02:50;3.75;;;2.40;;
20814;SDS011;10568;48.176;16.316;2022-08-01T00:05:16;3.00;;;2.53;;
20814;SDS011;10568;48.176;16.316;2022-08-01T00:07:42;3.27;;;2.57;;
20814;SDS011;10568;48.176;16.316;2022-08-01T00:10:09;3.03;;;2.63;;
20814;SDS011;10568;48.176;16.316;2022-08-01T00:12:37;2.77;;;2.57;;
20814;SDS011;10568;48.176;16.316;2022-08-01T00:15:04;2.33;;;2.13;;
20814;SDS011;10568;48.176;16.316;2022-08-01T00:17:30;3.03;;;2.63;;
20814;SDS011;10568;48.176;16.316;2022-08-01T00:19:56;2.72;;;2.38;;
20814;SDS011;10568;48.176;16.316;2022-08-01T00:22:22;3.10;;;2.33;;
20814;SDS011;10568;48.176;16.316;2022-08-01T00:24:48;3.05;;;2.63;;
20814;SDS011;10568;48.176;16.316;2022-08-01T00:27:14;3.47;;;2.83;;
20814;SDS011;10568;48.176;16.316;2022-08-01T00:29:40;2.73;;;2.53;;
20814;SDS011;10568;48.176;16.316;2022-08-01T00:32:06;5.50;;;2.60;;
20814;SDS011;10568;48.176;16.316;2022-08-01T00:34:32;2.67;;;2.47;;
20814;SDS011;10568;48.176;16.316;2022-08-01T00:36:59;2.63;;;2.13;;
20814;SDS011;10568;48.176;16.316;2022-08-01T00:39:24;2.97;;;2.67;;
20814;SDS011;10568;48.176;16.316;2022-08-01T00:41:50;3.67;;;2.33;;
20814;SDS011;10568;48.176;16.316;2022-08-01T00:44:16;2.50;;;2.30;;
20814;SDS011;10568;48.176;16.316;2022-08-01T00:46:42;2.63;;;2.42;;
20814;SDS011;10568;48.176;16.316;2022-08-01T00:49:08;2.70;;;2.50;;
20814;SDS011;10568;48.176;16.316;2022-08-01T00:51:33;2.87;;;2.50;;
20814;SDS011;10568;48.176;16.316;2022-08-01T00:53:59;2.70;;;2.50;;
20814;SDS011;10568;48.176;16.316;2022-08-01T00:56:26;4.50;;;2.70;;
20814;SDS011;10568;48.176;16.316;2022-08-01T00:58:53;3.00;;;2.70;;
20814;SDS011;10568;48.176;16.316;2022-08-01T01:01:20;4.82;;;2.60;;
20814;SDS011;10568;48.176;16.316;2022-08-01T01:03:47;2.57;;;2.37;;
20814;SDS011;10568;48.176;16.316;2022-08-01T01:09:17;2.88;;;2.42;;
20814;SDS011;10568;48.176;16.316;2022-08-01T01:17:21;2.72;;;2.53;;
20814;SDS011;10568;48.176;16.316;2022-08-01T01:19:54;2.83;;;2.50;;
20814;SDS011;10568;48.176;16.316;2022-08-01T01:30:43;3.23;;;2.43;;
20814;SDS011;10568;48.176;16.316;2022-08-01T01:33:12;3.27;;;2.93;;
20814;SDS011;10568;48.176;16.316;2022-08-01T01:35:41;2.77;;;2.57;;
20814;SDS011;10568;48.176;16.316;2022-08-01T01:38:14;3.07;;;2.77;;
20814;SDS011;10568;48.176;16.316;2022-08-01T01:40:49;2.88;;;2.53;;
20814;SDS011;10568;48.176;16.316;2022-08-01T01:43:17;5.63;;;2.63;;
20814;SDS011;10568;48.176;16.316;2022-08-01T01:45:45;2.70;;;2.50;;
20814;SDS011;10568;48.176;16.316;2022-08-01T01:48:14;3.50;;;2.77;;
20814;SDS011;10568;48.176;16.316;2022-08-01T01:50:44;4.83;;;2.60;;
20814;SDS011;10568;48.176;16.316;2022-08-01T01:53:12;2.90;;;2.57;;
20814;SDS011;10568;48.176;16.316;2022-08-01T01:55:41;3.00;;;2.53;;
20814;SDS011;10568;48.176;16.316;2022-08-01T01:58:09;2.77;;;2.57;;
20814;SDS011;10568;48.176;16.316;2022-08-01T02:00:38;3.80;;;2.50;;
20814;SDS011;10568;48.176;16.316;2022-08-01T02:03:08;3.67;;;2.63;;
20814;SDS011;10568;48.176;16.316;2022-08-01T02:05:35;3.13;;;2.83;;
20814;SDS011;10568;48.176;16.316;2022-08-01T02:08:03;3.55;;;2.60;;
20814;SDS011;10568;48.176;16.316;2022-08-01T02:10:31;3.77;;;2.83;;
20814;SDS011;10568;48.176;16.316;2022-08-01T02:12:58;2.97;;;2.65;;
20814;SDS011;10568;48.176;16.316;2022-08-01T02:15:27;2.87;;;2.57;;
20814;SDS011;10568;48.176;16.316;2022-08-01T02:17:54;3.83;;;3.10;;
20814;SDS011;10568;48.176;16.316;2022-08-01T02:20:23;3.10;;;2.60;;
20814;SDS011;10568;48.176;16.316;2022-08-01T02:22:53;2.80;;;2.50;;
20814;SDS011;10568;48.176;16.316;2022-08-01T02:25:48;2.88;;;2.60;;
20814;SDS011;10568;48.176;16.316;2022-08-01T02:28:19;2.97;;;2.53;;
20814;SDS011;10568;48.176;16.316;2022-08-01T02:30:53;4.47;;;3.00;;
20814;SDS011;10568;48.176;16.316;2022-08-01T02:33:24;2.97;;;2.67;;
20814;SDS011;10568;48.176;16.316;2022-08-01T02:35:58;2.90;;;2.10;;
20814;SDS011;10568;48.176;16.316;2022-08-01T02:38:27;2.70;;;2.47;;
20814;SDS011;10568;48.176;16.316;2022-08-01T02:40:58;2.43;;;2.23;;
20814;SDS011;10568;48.176;16.316;2022-08-01T02:43:28;3.20;;;2.47;;
20814;SDS011;10568;48.176;16.316;2022-08-01T02:46:00;2.80;;;2.57;;
20814;SDS011;10568;48.176;16.316;2022-08-01T02:48:27;5.47;;;2.60;;
20814;SDS011;10568;48.176;16.316;2022-08-01T02:50:58;2.75;;;2.35;;
20814;SDS011;10568;48.176;16.316;2022-08-01T02:53:27;4.05;;;2.60;;
20814;SDS011;10568;48.176;16.316;2022-08-01T02:55:56;3.08;;;2.60;;
20814;SDS011;10568;48.176;16.316;2022-08-01T02:58:23;2.23;;;2.03;;
20814;SDS011;10568;48.176;16.316;2022-08-01T03:00:50;2.65;;;2.45;;
20814;SDS011;10568;48.176;16.316;2022-08-01T03:03:17;2.50;;;2.30;;
20814;SDS011;10568;48.176;16.316;2022-08-01T03:05:43;2.85;;;2.50;;
20814;SDS011;10568;48.176;16.316;2022-08-01T03:08:11;2.70;;;2.50;;
20814;SDS011;10568;48.176;16.316;2022-08-01T03:10:39;3.15;;;2.85;;
20814;SDS011;10568;48.176;16.316;2022-08-01T03:13:08;3.00;;;2.67;;
20814;SDS011;10568;48.176;16.316;2022-08-01T03:15:37;2.85;;;2.30;;
20814;SDS011;10568;48.176;16.316;2022-08-01T03:18:05;3.03;;;2.65;;
20814;SDS011;10568;48.176;16.316;2022-08-01T03:20:33;2.45;;;2.25;;
20814;SDS011;10568;48.176;16.316;2022-08-01T03:23:09;3.55;;;2.38;;
20814;SDS011;10568;48.176;16.316;2022-08-01T03:25:38;2.67;;;2.40;;
20814;SDS011;10568;48.176;16.316;2022-08-01T03:28:06;3.13;;;2.70;;
20814;SDS011;10568;48.176;16.316;2022-08-01T03:30:34;2.95;;;2.22;;
20814;SDS011;10568;48.176;16.316;2022-08-01T03:33:02;3.35;;;2.33;;
20814;SDS011;10568;48.176;16.316;2022-08-01T03:35:30;2.97;;;2.30;;
20814;SDS011;10568;48.176;16.316;2022-08-01T03:37:59;3.28;;;2.33;;
20814;SDS011;10568;48.176;16.316;2022-08-01T03:40:31;2.53;;;2.33;;
20814;SDS011;10568;48.176;16.316;2022-08-01T03:43:03;2.33;;;2.13;;
20814;SDS011;10568;48.176;16.316;2022-08-01T03:45:41;2.50;;;2.30;;
20814;SDS011;10568;48.176;16.316;2022-08-01T03:48:18;2.35;;;2.15;;
20814;SDS011;10568;48.176;16.316;2022-08-01T03:50:48;2.33;;;2.13;;
20814;SDS011;10568;48.176;16.316;2022-08-01T03:53:19;3.42;;;2.40;;
20814;SDS011;10568;48.176;16.316;2022-08-01T03:55:47;2.85;;;2.60;;
20814;SDS011;10568;48.176;16.316;2022-08-01T03:58:14;3.45;;;2.63;;
20814;SDS011;10568;48.176;16.316;2022-08-01T04:00:41;3.42;;;2.40;;
20814;SDS011;10568;48.176;16.316;2022-08-01T04:03:08;3.70;;;2.45;;
20814;SDS011;10568;48.176;16.316;2022-08-01T04:05:35;2.78;;;2.30;;
20814;SDS011;10568;48.176;16.316;2022-08-01T04:08:01;2.85;;;2.40;;
20814;SDS011;10568;48.176;16.316;2022-08-01T04:10:28;2.88;;;2.58;;
20814;SDS011;10568;48.176;16.316;2022-08-01T04:12:54;3.08;;;2.30;;
20814;SDS011;10568;48.176;16.316;2022-08-01T04:15:20;2.70;;;2.15;;
20814;SDS011;10568;48.176;16.316;2022-08-01T04:17:46;4.10;;;2.38;;
20814;SDS011;10568;48.176;16.316;2022-08-01T04:20:12;2.65;;;2.20;;
20814;SDS011;10568;48.176;16.316;2022-08-01T04:22:39;2.53;;;2.17;;
20814;SDS011;10568;48.176;16.316;2022-08-01T04:25:12;2.47;;;2.28;;
20814;SDS011;10568;48.176;16.316;2022-08-01T04:28:00;3.08;;;2.42;;
20814;SDS011;10568;48.176;16.316;2022-08-01T04:30:30;2.60;;;2.40;;
20814;SDS011;10568;48.176;16.316;2022-08-01T04:32:59;2.35;;;2.15;;
20814;SDS011;10568;48.176;16.316;2022-08-01T04:35:27;4.35;;;2.20;;
20814;SDS011;10568;48.176;16.316;2022-08-01T04:37:54;3.67;;;2.60;;
20814;SDS011;10568;48.176;16.316;2022-08-01T04:40:23;3.58;;;2.55;;
20814;SDS011;10568;48.176;16.316;2022-08-01T04:42:51;2.53;;;2.10;;
20814;SDS011;10568;48.176;16.316;2022-08-01T04:45:17;2.87;;;2.53;;
20814;SDS011;10568;48.176;16.316;2022-08-01T04:47:43;3.17;;;2.28;;
20814;SDS011;10568;48.176;16.316;2022-08-01T04:50:10;2.78;;;2.47;;
20814;SDS011;10568;48.176;16.316;2022-08-01T04:52:37;2.63;;;2.42;;
20814;SDS011;10568;48.176;16.316;2022-08-01T04:55:03;2.35;;;2.15;;
20814;SDS011;10568;48.176;16.316;2022-08-01T04:57:32;2.70;;;2.30;;
20814;SDS011;10568;48.176;16.316;2022-08-01T05:00:00;2.90;;;2.35;;
20814;SDS011;10568;48.176;16.316;2022-08-01T05:02:28;2.83;;;2.35;;
20814;SDS011;10568;48.176;16.316;2022-08-01T05:04:54;2.55;;;2.22;;
20814;SDS011;10568;48.176;16.316;2022-08-01T05:07:23;2.40;;;2.20;;
20814;SDS011;10568;48.176;16.316;2022-08-01T05:09:49;3.30;;;2.30;;
20814;SDS011;10568;48.176;16.316;2022-08-01T05:12:15;2.13;;;2.00;;
20814;SDS011;10568;48.176;16.316;2022-08-01T05:14:41;2.70;;;2.47;;
20814;SDS011;10568;48.176;16.316;2022-08-01T05:17:08;4.55;;;2.20;;
20814;SDS011;10568;48.176;16.316;2022-08-01T05:19:34;2.53;;;2.30;;
20814;SDS011;10568;48.176;16.316;2022-08-01T05:22:04;2.30;;;2.10;;
20814;SDS011;10568;48.176;16.316;2022-08-01T05:24:32;2.22;;;2.00;;
20814;SDS011;10568;48.176;16.316;2022-08-01T05:26:59;2.85;;;2.10;;
20814;SDS011;10568;48.176;16.316;2022-08-01T05:29:25;2.40;;;2.20;;
20814;SDS011;10568;48.176;16.316;2022-08-01T05:31:52;2.97;;;2.25;;
20814;SDS011;10568;48.176;16.316;2022-08-01T05:34:18;2.75;;;2.53;;
20814;SDS011;10568;48.176;16.316;2022-08-01T05:36:44;2.25;;;2.05;;
20814;SDS011;10568;48.176;16.316;2022-08-01T05:39:10;2.63;;;2.15;;
20814;SDS011;10568;48.176;16.316;2022-08-01T05:41:36;3.05;;;2.15;;
20814;SDS011;10568;48.176;16.316;2022-08-01T05:44:03;3.50;;;2.35;;
20814;SDS011;10568;48.176;16.316;2022-08-01T05:46:29;2.22;;;2.03;;
20814;SDS011;10568;48.176;16.316;2022-08-01T05:48:58;2.97;;;2.25;;
20814;SDS011;10568;48.176;16.316;2022-08-01T05:51:28;3.47;;;2.00;;
20814;SDS011;10568;48.176;16.316;2022-08-01T05:53:54;2.30;;;2.00;;
20814;SDS011;10568;48.176;16.316;2022-08-01T05:59:42;2.25;;;2.05;;
20814;SDS011;10568;48.176;16.316;2022-08-01T06:02:08;2.20;;;2.00;;
20814;SDS011;10568;48.176;16.316;2022-08-01T06:04:34;2.67;;;2.13;;
20814;SDS011;10568;48.176;16.316;2022-08-01T06:07:05;2.50;;;1.98;;
20814;SDS011;10568;48.176;16.316;2022-08-01T06:09:31;3.47;;;2.03;;
20814;SDS011;10568;48.176;16.316;2022-08-01T06:11:57;3.22;;;2.10;;
20814;SDS011;10568;48.176;16.316;2022-08-01T06:14:23;2.47;;;1.98;;
20814;SDS011;10568;48.176;16.316;2022-08-01T06:16:49;2.15;;;1.75;;
20814;SDS011;10568;48.176;16.316;2022-08-01T06:19:14;2.80;;;2.00;;
20814;SDS011;10568;48.176;16.316;2022-08-01T06:21:40;1.88;;;1.77;;
20814;SDS011;10568;48.176;16.316;2022-08-01T06:24:06;2.35;;;2.00;;
20814;SDS011;10568;48.176;16.316;2022-08-01T06:26:32;2.30;;;2.10;;
20814;SDS011;10568;48.176;16.316;2022-08-01T06:28:58;2.35;;;1.92;;
20814;SDS011;10568;48.176;16.316;2022-08-01T06:31:24;2.92;;;1.98;;
20814;SDS011;10568;48.176;16.316;2022-08-01T06:33:50;2.22;;;2.03;;
20814;SDS011;10568;48.176;16.316;2022-08-01T06:36:16;2.17;;;1.90;;
20814;SDS011;10568;48.176;16.316;2022-08-01T06:38:41;3.00;;;2.00;;
20814;SDS011;10568;48.176;16.316;2022-08-01T06:41:07;2.35;;;1.92;;
20814;SDS011;10568;48.176;16.316;2022-08-01T06:43:33;2.25;;;2.00;;
20814;SDS011;10568;48.176;16.316;2022-08-01T06:45:59;3.17;;;2.03;;
20814;SDS011;10568;48.176;16.316;2022-08-01T06:48:24;2.65;;;2.00;;
20814;SDS011;10568;48.176;16.316;2022-08-01T06:50:51;2.78;;;2.20;;
20814;SDS011;10568;48.176;16.316;2022-08-01T06:53:32;1.90;;;1.80;;
20814;SDS011;10568;48.176;16.316;2022-08-01T06:55:59;2.17;;;1.98;;
20814;SDS011;10568;48.176;16.316;2022-08-01T06:58:25;3.60;;;1.95;;
20814;SDS011;10568;48.176;16.316;2022-08-01T07:00:51;2.00;;;1.80;;
20814;SDS011;10568;48.176;16.316;2022-08-01T07:03:17;2.28;;;2.08;;
20814;SDS011;10568;48.176;16.316;2022-08-01T07:05:43;2.13;;;1.70;;
20814;SDS011;10568;48.176;16.316;2022-08-01T07:08:08;2.95;;;1.60;;
20814;SDS011;10568;48.176;16.316;2022-08-01T07:10:34;2.13;;;1.88;;
20814;SDS011;10568;48.176;16.316;2022-08-01T07:13:00;2.33;;;1.77;;
20814;SDS011;10568;48.176;16.316;2022-08-01T07:15:26;2.10;;;1.90;;
20814;SDS011;10568;48.176;16.316;2022-08-01T07:17:51;1.70;;;1.60;;
20814;SDS011;10568;48.176;16.316;2022-08-01T07:20:17;2.70;;;1.95;;
20814;SDS011;10568;48.176;16.316;2022-08-01T07:22:43;2.30;;;1.73;;
20814;SDS011;10568;48.176;16.316;2022-08-01T07:25:09;2.42;;;1.60;;
20814;SDS011;10568;48.176;16.316;2022-08-01T07:27:35;1.58;;;1.48;;
20814;SDS011;10568;48.176;16.316;2022-08-01T07:30:03;2.38;;;1.70;;
20814;SDS011;10568;48.176;16.316;2022-08-01T07:32:30;2.03;;;1.70;;
20814;SDS011;10568;48.176;16.316;2022-08-01T07:34:56;1.80;;;1.65;;
20814;SDS011;10568;48.176;16.316;2022-08-01T07:37:22;2.28;;;1.60;;
20814;SDS011;10568;48.176;16.316;2022-08-01T07:39:49;2.20;;;1.70;;
20814;SDS011;10568;48.176;16.316;2022-08-01T07:42:15;2.25;;;1.75;;
20814;SDS011;10568;48.176;16.316;2022-08-01T07:44:40;2.45;;;1.92;;
20814;SDS011;10568;48.176;16.316;2022-08-01T07:47:06;1.85;;;1.65;;
20814;SDS011;10568;48.176;16.316;2022-08-01T07:49:32;2.53;;;1.95;;
20814;SDS011;10568;48.176;16.316;2022-08-01T07:55:21;2.05;;;1.80;;
20814;SDS011;10568;48.176;16.316;2022-08-01T07:57:46;1.83;;;1.70;;
20814;SDS011;10568;48.176;16.316;2022-08-01T08:00:12;2.45;;;1.83;;
20814;SDS011;10568;48.176;16.316;2022-08-01T08:02:39;2.13;;;1.92;;
20814;SDS011;10568;48.176;16.316;2022-08-01T08:05:04;2.20;;;1.60;;
20814;SDS011;10568;48.176;16.316;2022-08-01T08:07:32;1.80;;;1.70;;
20814;SDS011;10568;48.176;16.316;2022-08-01T08:09:58;1.65;;;1.55;;
20814;SDS011;10568;48.176;16.316;2022-08-01T08:12:24;2.03;;;1.83;;
20814;SDS011;10568;48.176;16.316;2022-08-01T08:14:50;2.30;;;1.90;;
20814;SDS011;10568;48.176;16.316;2022-08-01T08:17:16;1.98;;;1.80;;
20814;SDS011;10568;48.176;16.316;2022-08-01T08:19:42;3.65;;;2.20;;
20814;SDS011;10568;48.176;16.316;2022-08-01T08:22:09;1.63;;;1.52;;
20814;SDS011;10568;48.176;16.316;2022-08-01T08:24:35;1.63;;;1.52;;
20814;SDS011;10568;48.176;16.316;2022-08-01T08:27:02;1.67;;;1.48;;
20814;SDS011;10568;48.176;16.316;2022-08-01T08:29:29;1.67;;;1.58;;
20814;SDS011;10568;48.176;16.316;2022-08-01T08:31:56;1.85;;;1.75;;
20814;SDS011;10568;48.176;16.316;2022-08-01T08:34:23;1.80;;;1.70;;
20814;SDS011;10568;48.176;16.316;2022-08-01T08:36:49;2.92;;;1.50;;
20814;SDS011;10568;48.176;16.316;2022-08-01T08:39:16;2.33;;;1.80;;
20814;SDS011;10568;48.176;16.316;2022-08-01T08:41:42;2.15;;;1.60;;
20814;SDS011;10568;48.176;16.316;2022-08-01T08:44:08;2.08;;;1.55;;
20814;SDS011;10568;48.176;16.316;2022-08-01T08:46:43;1.80;;;1.70;;
20814;SDS011;10568;48.176;16.316;2022-08-01T08:49:11;2.00;;;1.80;;
20814;SDS011;10568;48.176;16.316;2022-08-01T08:51:41;1.80;;;1.60;;
20814;SDS011;10568;48.176;16.316;2022-08-01T08:54:10;2.25;;;1.90;;
20814;SDS011;10568;48.176;16.316;2022-08-01T08:56:38;1.60;;;1.50;;
20814;SDS011;10568;48.176;16.316;2022-08-01T08:59:05;2.42;;;1.70;;
20814;SDS011;10568;48.176;16.316;2022-08-01T09:01:31;3.08;;;1.83;;
20814;SDS011;10568;48.176;16.316;2022-08-01T09:03:58;2.38;;;1.70;;
20814;SDS011;10568;48.176;16.316;2022-08-01T09:06:24;5.03;;;1.88;;
20814;SDS011;10568;48.176;16.316;2022-08-01T09:08:50;1.98;;;1.77;;
20814;SDS011;10568;48.176;16.316;2022-08-01T09:11:16;2.08;;;1.83;;
20814;SDS011;10568;48.176;16.316;2022-08-01T09:13:45;3.30;;;1.77;;
20814;SDS011;10568;48.176;16.316;2022-08-01T09:16:27;2.17;;;1.92;;
20814;SDS011;10568;48.176;16.316;2022-08-01T09:18:53;2.40;;;2.20;;
20814;SDS011;10568;48.176;16.316;2022-08-01T09:21:31;5.60;;;2.22;;
20814;SDS011;10568;48.176;16.316;2022-08-01T09:23:56;1.92;;;1.75;;
20814;SDS011;10568;48.176;16.316;2022-08-01T09:26:31;2.03;;;1.65;;
20814;SDS011;10568;48.176;16.316;2022-08-01T09:29:00;2.50;;;2.25;;
20814;SDS011;10568;48.176;16.316;2022-08-01T09:31:28;2.05;;;1.80;;
20814;SDS011;10568;48.176;16.316;2022-08-01T09:36:23;1.92;;;1.83;;
20814;SDS011;10568;48.176;16.316;2022-08-01T09:38:50;2.13;;;1.92;;
20814;SDS011;10568;48.176;16.316;2022-08-01T09:41:17;3.63;;;2.03;;
20814;SDS011;10568;48.176;16.316;2022-08-01T09:43:55;2.80;;;2.20;;
20814;SDS011;10568;48.176;16.316;2022-08-01T09:46:21;2.25;;;2.05;;
20814;SDS011;10568;48.176;16.316;2022-08-01T09:49:00;2.65;;;2.00;;
20814;SDS011;10568;48.176;16.316;2022-08-01T09:51:31;2.25;;;2.05;;
20814;SDS011;10568;48.176;16.316;2022-08-01T09:54:05;3.80;;;2.28;;
20814;SDS011;10568;48.176;16.316;2022-08-01T09:56:35;2.50;;;2.15;;
20814;SDS011;10568;48.176;16.316;2022-08-01T09:59:02;2.67;;;1.80;;
20814;SDS011;10568;48.176;16.316;2022-08-01T10:01:42;2.20;;;2.00;;
20814;SDS011;10568;48.176;16.316;2022-08-01T10:04:19;2.17;;;1.98;;
20814;SDS011;10568;48.176;16.316;2022-08-01T10:06:47;3.22;;;2.10;;
20814;SDS011;10568;48.176;16.316;2022-08-01T10:09:31;2.90;;;2.22;;
20814;SDS011;10568;48.176;16.316;2022-08-01T10:12:02;3.50;;;2.13;;
20814;SDS011;10568;48.176;16.316;2022-08-01T10:14:29;2.08;;;1.90;;
20814;SDS011;10568;48.176;16.316;2022-08-01T10:16:57;2.55;;;2.05;;
20814;SDS011;10568;48.176;16.316;2022-08-01T10:19:24;2.50;;;2.30;;
20814;SDS011;10568;48.176;16.316;2022-08-01T10:21:53;2.55;;;2.30;;
20814;SDS011;10568;48.176;16.316;2022-08-01T10:24:20;3.10;;;2.22;;
20814;SDS011;10568;48.176;16.316;2022-08-01T10:27:01;3.33;;;2.50;;
20814;SDS011;10568;48.176;16.316;2022-08-01T10:29:31;5.13;;;2.30;;
20814;SDS011;10568;48.176;16.316;2022-08-01T10:32:04;2.45;;;2.25;;
20814;SDS011;10568;48.176;16.316;2022-08-01T10:34:31;2.38;;;2.10;;
20814;SDS011;10568;48.176;16.316;2022-08-01T10:36:58;2.20;;;2.00;;
20814;SDS011;10568;48.176;16.316;2022-08-01T10:39:25;2.65;;;2.33;;
20814;SDS011;10568;48.176;16.316;2022-08-01T10:41:55;3.10;;;2.20;;
20814;SDS011;10568;48.176;16.316;2022-08-01T10:44:21;2.95;;;2.17;;
20814;SDS011;10568;48.176;16.316;2022-08-01T10:46:52;2.80;;;2.08;;
20814;SDS011;10568;48.176;16.316;2022-08-01T10:49:26;3.20;;;2.10;;
20814;SDS011;10568;48.176;16.316;2022-08-01T10:51:54;2.08;;;1.80;;
20814;SDS011;10568;48.176;16.316;2022-08-01T10:54:20;2.63;;;1.88;;
20814;SDS011;10568;48.176;16.316;2022-08-01T10:56:50;2.22;;;2.00;;
20814;SDS011;10568;48.176;16.316;2022-08-01T10:59:21;2.00;;;1.80;;
20814;SDS011;10568;48.176;16.316;2022-08-01T11:01:56;1.92;;;1.83;;
20814;SDS011;10568;48.176;16.316;2022-08-01T11:07:46;2.95;;;1.70;;
20814;SDS011;10568;48.176;16.316;2022-08-01T11:12:58;2.97;;;1.80;;
20814;SDS011;10568;48.176;16.316;2022-08-01T11:15:26;1.70;;;1.60;;
20814;SDS011;10568;48.176;16.316;2022-08-01T11:17:55;1.95;;;1.65;;
20814;SDS011;10568;48.176;16.316;2022-08-01T11:20:54;2.72;;;1.65;;
20814;SDS011;10568;48.176;16.316;2022-08-01T11:23:22;2.65;;;2.05;;
20814;SDS011;10568;48.176;16.316;2022-08-01T11:30:48;2.97;;;2.05;;
20814;SDS011;10568;48.176;16.316;2022-08-01T11:33:17;2.63;;;2.20;;
20814;SDS011;10568;48.176;16.316;2022-08-01T11:36:45;2.03;;;1.85;;
20814;SDS011;10568;48.176;16.316;2022-08-01T11:38:43;3.70;;;2.00;;
20814;SDS011;10568;48.176;16.316;2022-08-01T11:41:11;1.73;;;1.63;;
20814;SDS011;10568;48.176;16.316;2022-08-01T11:43:54;2.42;;;2.00;;
20814;SDS011;10568;48.176;16.316;2022-08-01T11:52:26;3.85;;;1.83;;
20814;SDS011;10568;48.176;16.316;2022-08-01T11:57:29;1.90;;;1.73;;
20814;SDS011;10568;48.176;16.316;2022-08-01T11:59:59;3.58;;;2.15;;
20814;SDS011;10568;48.176;16.316;2022-08-01T12:02:27;1.95;;;1.77;;
20814;SDS011;10568;48.176;16.316;2022-08-01T12:07:28;1.73;;;1.63;;
20814;SDS011;10568;48.176;16.316;2022-08-01T12:12:40;2.03;;;1.83;;
20814;SDS011;10568;48.176;16.316;2022-08-01T12:15:29;2.08;;;1.88;;
20814;SDS011;10568;48.176;16.316;2022-08-01T12:18:00;1.80;;;1.70;;
20814;SDS011;10568;48.176;16.316;2022-08-01T12:20:30;2.50;;;1.90;;
20814;SDS011;10568;48.176;16.316;2022-08-01T12:22:59;1.70;;;1.60;;
20814;SDS011;10568;48.176;16.316;2022-08-01T12:25:28;1.98;;;1.88;;
20814;SDS011;10568;48.176;16.316;2022-08-01T12:27:54;2.28;;;2.08;;
20814;SDS011;10568;48.176;16.316;2022-08-01T12:30:24;2.05;;;1.88;;
20814;SDS011;10568;48.176;16.316;2022-08-01T12:32:53;1.65;;;1.20;;
20814;SDS011;10568;48.176;16.316;2022-08-01T12:35:20;1.73;;;1.13;;
20814;SDS011;10568;48.176;16.316;2022-08-01T12:37:54;1.50;;;1.30;;
20814;SDS011;10568;48.176;16.316;2022-08-01T12:40:26;1.50;;;1.30;;
20814;SDS011;10568;48.176;16.316;2022-08-01T12:42:57;1.48;;;1.38;;
20814;SDS011;10568;48.176;16.316;2022-08-01T12:45:35;1.85;;;1.20;;
20814;SDS011;10568;48.176;16.316;2022-08-01T12:48:08;1.38;;;1.10;;
20814;SDS011;10568;48.176;16.316;2022-08-01T12:50:37;1.30;;;1.20;;
20814;SDS011;10568;48.176;16.316;2022-08-01T12:53:04;0.90;;;0.90;;
20814;SDS011;10568;48.176;16.316;2022-08-01T12:55:31;2.67;;;1.27;;
20814;SDS011;10568;48.176;16.316;2022-08-01T12:58:30;1.17;;;1.05;;
20814;SDS011;10568;48.176;16.316;2022-08-01T13:00:49;3.55;;;1.63;;
20814;SDS011;10568;48.176;16.316;2022-08-01T13:03:27;2.38;;;1.30;;
20814;SDS011;10568;48.176;16.316;2022-08-01T13:05:54;1.92;;;1.20;;
20814;SDS011;10568;48.176;16.316;2022-08-01T13:08:23;1.50;;;1.33;;
20814;SDS011;10568;48.176;16.316;2022-08-01T13:10:53;1.95;;;1.50;;
20814;SDS011;10568;48.176;16.316;2022-08-01T13:13:38;1.67;;;1.40;;
20814;SDS011;10568;48.176;16.316;2022-08-01T13:16:08;1.55;;;1.45;;
20814;SDS011;10568;48.176;16.316;2022-08-01T13:18:36;2.00;;;1.80;;
20814;SDS011;10568;48.176;16.316;2022-08-01T13:23:38;3.08;;;1.92;;
20814;SDS011;10568;48.176;16.316;2022-08-01T13:26:05;3.03;;;1.92;;
20814;SDS011;10568;48.176;16.316;2022-08-01T13:28:31;3.17;;;1.90;;
20814;SDS011;10568;48.176;16.316;2022-08-01T13:30:59;1.60;;;1.50;;
20814;SDS011;10568;48.176;16.316;2022-08-01T13:33:47;2.33;;;1.58;;
20814;SDS011;10568;48.176;16.316;2022-08-01T13:36:13;1.75;;;1.60;;
20814;SDS011;10568;48.176;16.316;2022-08-01T13:38:40;1.70;;;1.60;;
20814;SDS011;10568;48.176;16.316;2022-08-01T13:41:25;2.22;;;1.42;;
20814;SDS011;10568;48.176;16.316;2022-08-01T13:43:51;1.85;;;1.50;;
20814;SDS011;10568;48.176;16.316;2022-08-01T13:46:17;2.45;;;1.20;;
20814;SDS011;10568;48.176;16.316;2022-08-01T13:48:43;0.90;;;0.90;;
20814;SDS011;10568;48.176;16.316;2022-08-01T13:51:09;2.72;;;1.05;;
20814;SDS011;10568;48.176;16.316;2022-08-01T13:53:35;0.90;;;0.85;;
20814;SDS011;10568;48.176;16.316;2022-08-01T13:56:01;1.70;;;1.13;;
20814;SDS011;10568;48.176;16.316;2022-08-01T13:58:27;1.35;;;0.73;;
20814;SDS011;10568;48.176;16.316;2022-08-01T14:00:54;1.40;;;1.00;;
20814;SDS011;10568;48.176;16.316;2022-08-01T14:03:21;1.00;;;0.90;;
20814;SDS011;10568;48.176;16.316;2022-08-01T14:05:47;1.00;;;0.90;;
20814;SDS011;10568;48.176;16.316;2022-08-01T14:08:14;1.00;;;0.90;;
20814;SDS011;10568;48.176;16.316;2022-08-01T14:10:40;1.73;;;1.10;;
20814;SDS011;10568;48.176;16.316;2022-08-01T14:13:06;0.98;;;0.80;;
20814;SDS011;10568;48.176;16.316;2022-08-01T14:15:32;1.23;;;0.90;;
20814;SDS011;10568;48.176;16.316;2022-08-01T14:17:59;1.30;;;1.08;;
20814;SDS011;10568;48.176;16.316;2022-08-01T14:20:25;0.95;;;0.85;;
20814;SDS011;10568;48.176;16.316;2022-08-01T14:22:51;1.17;;;1.08;;
20814;SDS011;10568;48.176;16.316;2022-08-01T14:25:16;0.85;;;0.85;;
20814;SDS011;10568;48.176;16.316;2022-08-01T14:27:43;1.88;;;1.08;;
20814;SDS011;10568;48.176;16.316;2022-08-01T14:30:11;1.10;;;1.00;;
20814;SDS011;10568;48.176;16.316;2022-08-01T14:32:37;1.60;;;1.00;;
20814;SDS011;10568;48.176;16.316;2022-08-01T14:35:04;1.05;;;0.95;;
20814;SDS011;10568;48.176;16.316;2022-08-01T14:37:31;2.35;;;1.10;;
20814;SDS011;10568;48.176;16.316;2022-08-01T14:39:57;2.58;;;1.08;;
20814;SDS011;10568;48.176;16.316;2022-08-01T14:42:24;1.00;;;0.90;;
20814;SDS011;10568;48.176;16.316;2022-08-01T14:44:50;1.15;;;1.05;;
20814;SDS011;10568;48.176;16.316;2022-08-01T14:47:16;2.70;;;1.10;;
20814;SDS011;10568;48.176;16.316;2022-08-01T14:49:42;1.75;;;1.30;;
20814;SDS011;10568;48.176;16.316;2022-08-01T14:52:08;1.65;;;0.95;;
20814;SDS011;10568;48.176;16.316;2022-08-01T14:54:34;1.70;;;1.10;;
20814;SDS011;10568;48.176;16.316;2022-08-01T14:56:59;1.17;;;1.08;;
20814;SDS011;10568;48.176;16.316;2022-08-01T14:59:25;1.40;;;1.20;;
20814;SDS011;10568;48.176;16.316;2022-08-01T15:01:51;1.85;;;1.23;;
20814;SDS011;10568;48.176;16.316;2022-08-01T15:04:17;2.53;;;1.05;;
20814;SDS011;10568;48.176;16.316;2022-08-01T15:06:43;2.00;;;1.30;;
20814;SDS011;10568;48.176;16.316;2022-08-01T15:09:09;1.52;;;1.20;;
20814;SDS011;10568;48.176;16.316;2022-08-01T15:11:35;1.20;;;1.08;;
20814;SDS011;10568;48.176;16.316;2022-08-01T15:14:02;1.30;;;1.17;;
20814;SDS011;10568;48.176;16.316;2022-08-01T15:16:46;1.30;;;1.20;;
20814;SDS011;10568;48.176;16.316;2022-08-01T15:19:12;1.35;;;1.23;;
20814;SDS011;10568;48.176;16.316;2022-08-01T15:21:38;1.55;;;1.45;;
20814;SDS011;10568;48.176;16.316;2022-08-01T15:24:04;1.85;;;1.45;;
20814;SDS011;10568;48.176;16.316;2022-08-01T15:26:31;1.42;;;1.25;;
20814;SDS011;10568;48.176;16.316;2022-08-01T15:28:57;1.40;;;1.30;;
20814;SDS011;10568;48.176;16.316;2022-08-01T15:31:23;3.42;;;1.52;;
20814;SDS011;10568;48.176;16.316;2022-08-01T15:33:48;1.50;;;1.30;;